createdAt,value
2017-04-07T00:00:17.571Z,1014.64
2017-04-07T00:00:58.001Z,1014.61
2017-04-07T00:01:38.453Z,1014.62
2017-04-07T00:02:18.912Z,1014.63
2017-04-07T00:02:59.359Z,1014.59
2017-04-07T00:03:39.807Z,1014.6
2017-04-07T00:04:21.038Z,1014.61
2017-04-07T00:05:01.512Z,1014.59
2017-04-07T00:05:41.976Z,1014.56
2017-04-07T00:06:22.406Z,1014.57
2017-04-07T00:07:02.883Z,1014.58
2017-04-07T00:07:43.345Z,1014.55
2017-04-07T00:08:23.779Z,1014.59
2017-04-07T00:09:04.214Z,1014.57
2017-04-07T00:09:44.698Z,1014.54
2017-04-07T00:10:25.116Z,1014.57
2017-04-07T00:11:05.591Z,1014.5
2017-04-07T00:11:46.080Z,1014.53
2017-04-07T00:13:43.760Z,1014.52
2017-04-07T00:14:24.239Z,1014.51
2017-04-07T00:15:04.733Z,1014.53
2017-04-07T00:15:45.211Z,1014.52
2017-04-07T00:16:25.691Z,1014.54
2017-04-07T00:18:53.630Z,1014.44
2017-04-07T00:19:34.111Z,1014.4
2017-04-07T00:20:14.633Z,1014.44
2017-04-07T00:20:55.067Z,1014.45
2017-04-07T00:21:35.537Z,1014.45
2017-04-07T00:22:16.000Z,1014.43
2017-04-07T00:22:56.465Z,1014.44
2017-04-07T00:23:36.967Z,1014.38
2017-04-07T00:24:17.436Z,1014.4
2017-04-07T00:24:57.886Z,1014.39
2017-04-07T00:25:38.349Z,1014.37
2017-04-07T00:26:18.791Z,1014.34
2017-04-07T00:26:59.283Z,1014.39
2017-04-07T00:27:39.823Z,1014.34
2017-04-07T00:28:20.287Z,1014.36
2017-04-07T00:29:00.717Z,1014.35
2017-04-07T00:29:41.142Z,1014.34
2017-04-07T00:30:21.572Z,1014.38
2017-04-07T00:31:02.013Z,1014.34
2017-04-07T00:31:42.522Z,1014.35
2017-04-07T00:32:22.945Z,1014.3
2017-04-07T00:33:03.518Z,1014.32
2017-04-07T00:33:44.005Z,1014.28
2017-04-07T00:34:24.463Z,1014.29
2017-04-07T00:36:37.219Z,1014.32
2017-04-07T00:37:17.724Z,1014.35
2017-04-07T00:37:58.203Z,1014.3
2017-04-07T00:38:38.672Z,1014.3
2017-04-07T00:39:19.117Z,1014.34
2017-04-07T00:39:59.523Z,1014.34
2017-04-07T00:40:39.949Z,1014.35
2017-04-07T00:41:20.393Z,1014.33
2017-04-07T00:43:38.283Z,1014.25
2017-04-07T00:44:18.800Z,1014.28
2017-04-07T00:44:59.234Z,1014.23
2017-04-07T00:46:51.819Z,1014.24
2017-04-07T00:47:32.336Z,1014.26
2017-04-07T00:48:12.727Z,1014.24
2017-04-07T00:50:25.510Z,1014.25
2017-04-07T00:51:05.920Z,1014.18
2017-04-07T00:51:46.378Z,1014.22
2017-04-07T00:52:26.854Z,1014.21
2017-04-07T00:53:07.294Z,1014.24
2017-04-07T00:54:59.822Z,1014.18
2017-04-07T00:55:40.311Z,1014.13
2017-04-07T00:56:20.735Z,1014.19
2017-04-07T00:57:02.026Z,1014.17
2017-04-07T00:58:59.652Z,1014.17
2017-04-07T00:59:40.179Z,1014.21
2017-04-07T01:00:20.595Z,1014.18
2017-04-07T01:01:01.056Z,1014.16
2017-04-07T01:01:41.468Z,1014.17
2017-04-07T01:02:21.932Z,1014.17
2017-04-07T01:04:34.649Z,1014.15
2017-04-07T01:05:15.104Z,1014.16
2017-04-07T01:05:55.578Z,1014.14
2017-04-07T01:06:36.044Z,1014.14
2017-04-07T01:07:16.523Z,1014.15
2017-04-07T01:07:57.010Z,1014.1
2017-04-07T01:08:37.471Z,1014.07
2017-04-07T01:09:17.940Z,1014.06
2017-04-07T01:09:58.399Z,1014.05
2017-04-07T01:10:38.867Z,1014.05
2017-04-07T01:11:19.360Z,1014.04
2017-04-07T01:11:59.816Z,1014
2017-04-07T01:12:40.285Z,1014
2017-04-07T01:13:20.826Z,1014
2017-04-07T01:14:01.287Z,1013.98
2017-04-07T01:14:41.763Z,1014.02
2017-04-07T01:15:22.254Z,1013.98
2017-04-07T01:16:02.746Z,1013.99
2017-04-07T01:16:43.218Z,1014.02
2017-04-07T01:17:23.726Z,1014.01
2017-04-07T01:19:41.551Z,1013.99
2017-04-07T01:20:21.999Z,1013.95
2017-04-07T01:21:02.461Z,1013.97
2017-04-07T01:21:42.894Z,1013.92
2017-04-07T01:23:35.449Z,1013.91
2017-04-07T01:24:15.949Z,1013.9
2017-04-07T01:24:56.367Z,1013.86
2017-04-07T01:25:36.846Z,1013.89
2017-04-07T01:26:17.302Z,1013.84
2017-04-07T01:26:57.806Z,1013.86
2017-04-07T01:27:38.283Z,1013.83
2017-04-07T01:28:18.756Z,1013.83
2017-04-07T01:28:59.250Z,1013.82
2017-04-07T01:29:39.714Z,1013.81
2017-04-07T01:30:20.236Z,1013.83
2017-04-07T01:31:00.726Z,1013.84
2017-04-07T01:31:41.180Z,1013.78
2017-04-07T01:32:21.669Z,1013.78
2017-04-07T01:33:02.132Z,1013.82
2017-04-07T01:35:14.912Z,1013.75
2017-04-07T01:35:55.359Z,1013.77
2017-04-07T01:36:35.840Z,1013.76
2017-04-07T01:37:16.324Z,1013.74
2017-04-07T01:37:56.826Z,1013.72
2017-04-07T01:38:37.348Z,1013.71
2017-04-07T01:39:18.725Z,1013.72
2017-04-07T01:39:59.212Z,1013.66
2017-04-07T01:40:39.716Z,1013.69
2017-04-07T01:41:20.203Z,1013.69
2017-04-07T01:42:00.623Z,1013.67
2017-04-07T01:42:41.117Z,1013.66
2017-04-07T01:43:21.566Z,1013.68
2017-04-07T01:44:02.064Z,1013.69
2017-04-07T01:44:42.561Z,1013.65
2017-04-07T01:45:23.082Z,1013.65
2017-04-07T01:46:03.567Z,1013.65
2017-04-07T01:46:44.047Z,1013.65
2017-04-07T01:47:24.501Z,1013.64
2017-04-07T01:48:04.943Z,1013.63
2017-04-07T01:48:45.370Z,1013.63
2017-04-07T01:49:25.872Z,1013.6
2017-04-07T01:50:06.373Z,1013.57
2017-04-07T01:50:46.839Z,1013.57
2017-04-07T01:51:27.279Z,1013.58
2017-04-07T01:52:07.711Z,1013.6
2017-04-07T01:52:48.198Z,1013.59
2017-04-07T01:53:28.631Z,1013.62
2017-04-07T01:54:09.122Z,1013.58
2017-04-07T01:54:49.597Z,1013.63
2017-04-07T01:55:30.011Z,1013.6
2017-04-07T01:56:10.472Z,1013.58
2017-04-07T01:56:50.912Z,1013.6
2017-04-07T01:57:31.383Z,1013.61
2017-04-07T01:58:11.818Z,1013.57
2017-04-07T01:58:52.225Z,1013.57
2017-04-07T01:59:32.678Z,1013.53
2017-04-07T02:00:13.178Z,1013.55
2017-04-07T02:00:53.607Z,1013.55
2017-04-07T02:01:34.048Z,1013.52
2017-04-07T02:02:14.518Z,1013.55
2017-04-07T02:02:54.930Z,1013.51
2017-04-07T02:03:35.451Z,1013.51
2017-04-07T02:04:15.901Z,1013.52
2017-04-07T02:04:56.322Z,1013.52
2017-04-07T02:05:36.770Z,1013.5
2017-04-07T02:06:17.239Z,1013.52
2017-04-07T02:06:57.725Z,1013.54
2017-04-07T02:07:38.174Z,1013.54
2017-04-07T02:08:18.632Z,1013.57
2017-04-07T02:08:59.090Z,1013.59
2017-04-07T02:11:27.040Z,1013.57
2017-04-07T02:12:07.517Z,1013.61
2017-04-07T02:12:47.954Z,1013.61
2017-04-07T02:13:28.438Z,1013.61
2017-04-07T02:14:08.899Z,1013.59
2017-04-07T02:14:49.374Z,1013.61
2017-04-07T02:15:29.867Z,1013.57
2017-04-07T02:16:10.322Z,1013.57
2017-04-07T02:16:50.800Z,1013.55
2017-04-07T02:18:43.396Z,1013.53
2017-04-07T02:19:23.761Z,1013.56
2017-04-07T02:20:04.230Z,1013.53
2017-04-07T02:20:44.702Z,1013.57
2017-04-07T02:21:25.157Z,1013.54
2017-04-07T02:23:22.811Z,1013.54
2017-04-07T02:24:03.245Z,1013.52
2017-04-07T02:24:43.716Z,1013.54
2017-04-07T02:25:24.186Z,1013.52
2017-04-07T02:26:04.634Z,1013.54
2017-04-07T02:26:45.103Z,1013.5
2017-04-07T02:27:25.582Z,1013.52
2017-04-07T02:28:06.065Z,1013.47
2017-04-07T02:28:46.520Z,1013.5
2017-04-07T02:29:27.078Z,1013.49
2017-04-07T02:30:07.496Z,1013.5
2017-04-07T02:30:47.986Z,1013.48
2017-04-07T02:31:28.440Z,1013.48
2017-04-07T02:33:26.053Z,1013.47
2017-04-07T02:34:06.586Z,1013.46
2017-04-07T02:34:47.018Z,1013.44
2017-04-07T02:35:27.471Z,1013.49
2017-04-07T02:36:07.942Z,1013.49
2017-04-07T02:36:48.400Z,1013.47
2017-04-07T02:37:28.848Z,1013.52
2017-04-07T02:38:09.281Z,1013.49
2017-04-07T02:38:49.758Z,1013.47
2017-04-07T02:39:30.221Z,1013.46
2017-04-07T02:40:10.673Z,1013.46
2017-04-07T02:40:51.120Z,1013.5
2017-04-07T02:41:31.590Z,1013.48
2017-04-07T02:43:44.314Z,1013.51
2017-04-07T02:44:24.773Z,1013.48
2017-04-07T02:45:05.241Z,1013.5
2017-04-07T02:45:45.692Z,1013.5
2017-04-07T02:46:26.128Z,1013.5
2017-04-07T02:47:06.559Z,1013.52
2017-04-07T02:47:47.028Z,1013.5
2017-04-07T02:48:27.459Z,1013.51
2017-04-07T02:50:25.086Z,1013.5
2017-04-07T02:51:05.586Z,1013.49
2017-04-07T02:51:46.078Z,1013.5
2017-04-07T02:52:26.544Z,1013.49
2017-04-07T02:53:07.050Z,1013.51
2017-04-07T02:53:47.486Z,1013.5
2017-04-07T02:54:27.946Z,1013.48
2017-04-07T02:55:08.373Z,1013.47
2017-04-07T02:55:48.809Z,1013.49
2017-04-07T02:56:29.281Z,1013.48
2017-04-07T02:57:09.807Z,1013.48
2017-04-07T02:57:50.259Z,1013.49
2017-04-07T02:58:30.711Z,1013.48
2017-04-07T02:59:11.151Z,1013.46
2017-04-07T02:59:51.636Z,1013.47
2017-04-07T03:01:49.272Z,1013.42
2017-04-07T03:02:29.772Z,1013.37
2017-04-07T03:03:10.247Z,1013.39
2017-04-07T03:03:50.696Z,1013.38
2017-04-07T03:04:31.174Z,1013.35
2017-04-07T03:05:11.667Z,1013.34
2017-04-07T03:05:52.148Z,1013.35
2017-04-07T03:06:32.653Z,1013.35
2017-04-07T03:07:13.120Z,1013.35
2017-04-07T03:07:53.594Z,1013.34
2017-04-07T03:08:34.187Z,1013.35
2017-04-07T03:09:14.539Z,1013.33
2017-04-07T03:09:55.062Z,1013.3
2017-04-07T03:10:35.513Z,1013.36
2017-04-07T03:11:15.984Z,1013.35
2017-04-07T03:11:56.411Z,1013.31
2017-04-07T03:12:36.853Z,1013.29
2017-04-07T03:14:34.501Z,1013.32
2017-04-07T03:15:14.954Z,1013.34
2017-04-07T03:15:55.408Z,1013.32
2017-04-07T03:16:35.891Z,1013.34
2017-04-07T03:17:16.321Z,1013.3
2017-04-07T03:17:56.783Z,1013.33
2017-04-07T03:18:37.246Z,1013.32
2017-04-07T03:19:17.709Z,1013.3
2017-04-07T03:19:58.188Z,1013.31
2017-04-07T03:20:38.594Z,1013.29
2017-04-07T03:21:19.092Z,1013.31
2017-04-07T03:21:59.533Z,1013.31
2017-04-07T03:22:39.989Z,1013.28
2017-04-07T03:23:20.440Z,1013.32
2017-04-07T03:24:00.916Z,1013.31
2017-04-07T03:26:28.865Z,1013.3
2017-04-07T03:27:09.291Z,1013.33
2017-04-07T03:27:49.782Z,1013.33
2017-04-07T03:28:30.270Z,1013.34
2017-04-07T03:29:10.691Z,1013.33
2017-04-07T03:29:51.157Z,1013.34
2017-04-07T03:30:31.606Z,1013.32
2017-04-07T03:31:12.070Z,1013.3
2017-04-07T03:31:52.502Z,1013.31
2017-04-07T03:32:32.993Z,1013.27
2017-04-07T03:33:13.417Z,1013.3
2017-04-07T03:35:05.975Z,1013.24
2017-04-07T03:35:46.430Z,1013.26
2017-04-07T03:36:26.915Z,1013.22
2017-04-07T03:37:07.350Z,1013.23
2017-04-07T03:37:47.792Z,1013.26
2017-04-07T03:38:28.241Z,1013.25
2017-04-07T03:39:08.705Z,1013.26
2017-04-07T03:39:49.223Z,1013.21
2017-04-07T03:40:29.675Z,1013.21
2017-04-07T03:41:10.125Z,1013.21
2017-04-07T03:41:50.554Z,1013.21
2017-04-07T03:42:30.990Z,1013.19
2017-04-07T03:43:11.415Z,1013.16
2017-04-07T03:43:51.886Z,1013.19
2017-04-07T03:44:32.324Z,1013.2
2017-04-07T03:45:12.767Z,1013.18
2017-04-07T03:45:53.242Z,1013.18
2017-04-07T03:46:33.728Z,1013.17
2017-04-07T03:49:01.704Z,1013.17
2017-04-07T03:49:42.164Z,1013.17
2017-04-07T03:50:22.664Z,1013.2
2017-04-07T03:51:03.088Z,1013.18
2017-04-07T03:51:43.573Z,1013.2
2017-04-07T03:52:24.055Z,1013.15
2017-04-07T03:53:04.573Z,1013.15
2017-04-07T03:53:45.002Z,1013.16
2017-04-07T03:54:25.470Z,1013.18
2017-04-07T03:55:05.971Z,1013.14
2017-04-07T03:55:46.435Z,1013.12
2017-04-07T03:56:26.891Z,1013.13
2017-04-07T03:57:07.352Z,1013.15
2017-04-07T03:57:47.776Z,1013.13
2017-04-07T03:58:28.234Z,1013.12
2017-04-07T03:59:08.746Z,1013.12
2017-04-07T04:01:01.336Z,1013.15
2017-04-07T04:01:41.813Z,1013.16
2017-04-07T04:02:22.301Z,1013.16
2017-04-07T04:03:02.769Z,1013.15
2017-04-07T04:03:43.247Z,1013.17
2017-04-07T04:04:23.740Z,1013.18
2017-04-07T04:05:04.219Z,1013.2
2017-04-07T04:05:44.656Z,1013.15
2017-04-07T04:06:25.156Z,1013.16
2017-04-07T04:07:05.577Z,1013.13
2017-04-07T04:07:46.020Z,1013.12
2017-04-07T04:08:26.497Z,1013.12
2017-04-07T04:09:06.978Z,1013.15
2017-04-07T04:09:47.399Z,1013.1
2017-04-07T04:10:27.865Z,1013.16
2017-04-07T04:11:09.076Z,1013.1
2017-04-07T04:13:01.676Z,1013.14
2017-04-07T04:13:42.070Z,1013.17
2017-04-07T04:14:22.518Z,1013.16
2017-04-07T04:15:03.025Z,1013.16
2017-04-07T04:15:43.390Z,1013.16
2017-04-07T04:17:35.921Z,1013.18
2017-04-07T04:18:16.383Z,1013.16
2017-04-07T04:18:56.835Z,1013.15
2017-04-07T04:19:37.293Z,1013.16
2017-04-07T04:20:17.754Z,1013.15
2017-04-07T04:20:58.206Z,1013.17
2017-04-07T04:21:38.648Z,1013.15
2017-04-07T04:22:19.082Z,1013.13
2017-04-07T04:22:59.529Z,1013.1
2017-04-07T04:23:39.987Z,1013.12
2017-04-07T04:24:20.422Z,1013.13
2017-04-07T04:25:00.888Z,1013.12
2017-04-07T04:26:58.534Z,1013.16
2017-04-07T04:27:38.998Z,1013.13
2017-04-07T04:28:19.489Z,1013.12
2017-04-07T04:29:00.012Z,1013.13
2017-04-07T04:29:40.461Z,1013.11
2017-04-07T04:30:20.910Z,1013.15
2017-04-07T04:31:01.375Z,1013.16
2017-04-07T04:31:41.839Z,1013.13
2017-04-07T04:32:22.285Z,1013.15
2017-04-07T04:33:02.801Z,1013.15
2017-04-07T04:33:43.230Z,1013.15
2017-04-07T04:34:23.639Z,1013.15
2017-04-07T04:35:04.073Z,1013.16
2017-04-07T04:35:44.528Z,1013.14
2017-04-07T04:36:24.987Z,1013.13
2017-04-07T04:37:05.465Z,1013.16
2017-04-07T04:37:45.859Z,1013.13
2017-04-07T04:38:26.318Z,1013.17
2017-04-07T04:39:07.586Z,1013.14
2017-04-07T04:39:48.074Z,1013.2
2017-04-07T04:40:28.508Z,1013.2
2017-04-07T04:41:08.967Z,1013.19
2017-04-07T04:41:49.422Z,1013.18
2017-04-07T04:42:29.876Z,1013.16
2017-04-07T04:44:27.519Z,1013.17
2017-04-07T04:45:08.022Z,1013.22
2017-04-07T04:45:48.508Z,1013.19
2017-04-07T04:46:28.984Z,1013.2
2017-04-07T04:47:09.444Z,1013.15
2017-04-07T04:47:49.947Z,1013.21
2017-04-07T04:48:30.432Z,1013.17
2017-04-07T04:49:10.851Z,1013.18
2017-04-07T04:51:03.440Z,1013.17
2017-04-07T04:51:43.893Z,1013.2
2017-04-07T04:52:24.371Z,1013.19
2017-04-07T04:53:04.855Z,1013.18
2017-04-07T04:53:45.380Z,1013.23
2017-04-07T04:54:25.832Z,1013.19
2017-04-07T04:55:06.843Z,1013.2
2017-04-07T04:55:47.318Z,1013.23
2017-04-07T04:56:27.773Z,1013.24
2017-04-07T04:57:08.221Z,1013.17
2017-04-07T04:57:48.693Z,1013.18
2017-04-07T04:58:29.189Z,1013.22
2017-04-07T04:59:09.657Z,1013.19
2017-04-07T04:59:50.129Z,1013.22
2017-04-07T05:00:30.582Z,1013.21
2017-04-07T05:01:11.031Z,1013.21
2017-04-07T05:01:51.498Z,1013.23
2017-04-07T05:02:32.009Z,1013.25
2017-04-07T05:03:12.425Z,1013.25
2017-04-07T05:03:52.863Z,1013.2
2017-04-07T05:04:33.316Z,1013.22
2017-04-07T05:05:13.773Z,1013.24
2017-04-07T05:05:54.232Z,1013.24
2017-04-07T05:06:34.699Z,1013.25
2017-04-07T05:07:15.149Z,1013.23
2017-04-07T05:07:55.620Z,1013.22
2017-04-07T05:10:13.388Z,1013.23
2017-04-07T05:10:53.851Z,1013.24
2017-04-07T05:11:34.329Z,1013.22
2017-04-07T05:12:14.807Z,1013.26
2017-04-07T05:12:55.328Z,1013.25
2017-04-07T05:13:35.763Z,1013.26
2017-04-07T05:14:16.241Z,1013.25
2017-04-07T05:14:56.783Z,1013.3
2017-04-07T05:15:37.248Z,1013.25
2017-04-07T05:16:17.683Z,1013.3
2017-04-07T05:16:58.211Z,1013.29
2017-04-07T05:17:38.594Z,1013.31
2017-04-07T05:18:19.092Z,1013.32
2017-04-07T05:18:59.514Z,1013.34
2017-04-07T05:19:39.941Z,1013.36
2017-04-07T05:20:20.394Z,1013.34
2017-04-07T05:21:00.860Z,1013.37
2017-04-07T05:21:42.098Z,1013.38
2017-04-07T05:22:22.537Z,1013.39
2017-04-07T05:23:03.013Z,1013.37
2017-04-07T05:23:43.426Z,1013.38
2017-04-07T05:24:23.907Z,1013.37
2017-04-07T05:25:04.338Z,1013.4
2017-04-07T05:25:44.789Z,1013.43
2017-04-07T05:26:25.248Z,1013.45
2017-04-07T05:27:05.686Z,1013.44
2017-04-07T05:27:46.148Z,1013.43
2017-04-07T05:28:26.616Z,1013.44
2017-04-07T05:29:07.042Z,1013.46
2017-04-07T05:29:47.483Z,1013.43
2017-04-07T05:30:27.910Z,1013.44
2017-04-07T05:31:08.371Z,1013.44
2017-04-07T05:31:48.842Z,1013.41
2017-04-07T05:32:29.326Z,1013.41
2017-04-07T05:33:09.774Z,1013.45
2017-04-07T05:33:50.201Z,1013.47
2017-04-07T05:34:30.736Z,1013.49
2017-04-07T05:35:11.203Z,1013.48
2017-04-07T05:35:51.647Z,1013.51
2017-04-07T05:36:32.072Z,1013.54
2017-04-07T05:37:12.520Z,1013.57
2017-04-07T05:37:52.971Z,1013.56
2017-04-07T05:38:33.416Z,1013.58
2017-04-07T05:40:31.102Z,1013.61
2017-04-07T05:41:11.516Z,1013.61
2017-04-07T05:41:51.977Z,1013.59
2017-04-07T05:42:32.437Z,1013.58
2017-04-07T05:44:45.341Z,1013.61
2017-04-07T05:45:25.699Z,1013.62
2017-04-07T05:46:06.165Z,1013.62
2017-04-07T05:46:46.640Z,1013.65
2017-04-07T05:47:27.138Z,1013.68
2017-04-07T05:48:07.591Z,1013.66
2017-04-07T05:48:48.088Z,1013.67
2017-04-07T05:49:28.591Z,1013.71
2017-04-07T05:50:09.003Z,1013.7
2017-04-07T05:50:49.432Z,1013.65
2017-04-07T05:53:02.164Z,1013.69
2017-04-07T05:53:42.564Z,1013.74
2017-04-07T05:54:23.075Z,1013.74
2017-04-07T05:56:20.651Z,1013.72
2017-04-07T05:57:01.147Z,1013.78
2017-04-07T05:59:29.071Z,1013.8
2017-04-07T06:00:09.501Z,1013.79
2017-04-07T06:00:50.017Z,1013.8
2017-04-07T06:01:30.463Z,1013.81
2017-04-07T06:02:10.955Z,1013.81
2017-04-07T06:04:28.728Z,1013.87
2017-04-07T06:05:09.189Z,1013.85
2017-04-07T06:05:49.708Z,1013.86
2017-04-07T06:06:30.140Z,1013.86
2017-04-07T06:07:10.607Z,1013.86
2017-04-07T06:07:51.109Z,1013.87
2017-04-07T06:08:31.583Z,1013.87
2017-04-07T06:09:12.116Z,1013.89
2017-04-07T06:09:52.637Z,1013.88
2017-04-07T06:10:33.063Z,1013.89
2017-04-07T06:11:13.529Z,1013.87
2017-04-07T06:11:54.150Z,1013.88
2017-04-07T06:12:34.554Z,1013.88
2017-04-07T06:13:15.002Z,1013.88
2017-04-07T06:13:55.434Z,1013.89
2017-04-07T06:14:35.951Z,1013.89
2017-04-07T06:15:16.346Z,1013.85
2017-04-07T06:15:56.784Z,1013.9
2017-04-07T06:16:37.243Z,1013.91
2017-04-07T06:17:17.694Z,1013.93
2017-04-07T06:17:58.185Z,1013.96
2017-04-07T06:18:38.640Z,1013.95
2017-04-07T06:19:19.137Z,1013.92
2017-04-07T06:19:59.626Z,1013.94
2017-04-07T06:20:40.106Z,1013.95
2017-04-07T06:21:20.547Z,1013.96
2017-04-07T06:23:18.225Z,1013.92
2017-04-07T06:23:58.697Z,1013.94
2017-04-07T06:26:26.681Z,1013.94
2017-04-07T06:27:07.144Z,1013.96
2017-04-07T06:27:47.590Z,1013.93
2017-04-07T06:28:28.093Z,1013.95
2017-04-07T06:29:08.514Z,1013.99
2017-04-07T06:29:49.001Z,1014.02
2017-04-07T06:30:29.508Z,1013.97
2017-04-07T06:32:42.250Z,1013.98
2017-04-07T06:33:22.703Z,1013.99
2017-04-07T06:34:03.188Z,1013.98
2017-04-07T06:34:43.657Z,1014
2017-04-07T06:35:24.135Z,1013.98
2017-04-07T06:36:04.569Z,1014.04
2017-04-07T06:36:45.074Z,1014.02
2017-04-07T06:38:57.834Z,1014.03
2017-04-07T06:42:29.537Z,1014.04
2017-04-07T06:43:10.042Z,1014.04
2017-04-07T06:45:27.943Z,1014.06
2017-04-07T06:46:08.414Z,1014.08
2017-04-07T06:46:48.901Z,1014.12
2017-04-07T06:47:29.348Z,1014.13
2017-04-07T06:48:09.842Z,1014.14
2017-04-07T06:48:50.325Z,1014.14
2017-04-07T06:49:30.800Z,1014.13
2017-04-07T06:50:11.223Z,1014.15
2017-04-07T06:50:51.710Z,1014.13
2017-04-07T06:51:32.179Z,1014.1
2017-04-07T06:52:12.642Z,1014.12
2017-04-07T06:52:53.173Z,1014.13
2017-04-07T06:55:11.576Z,1014.19
2017-04-07T06:55:51.941Z,1014.19
2017-04-07T06:56:32.455Z,1014.23
2017-04-07T06:57:12.880Z,1014.22
2017-04-07T06:57:53.386Z,1014.19
2017-04-07T06:58:33.840Z,1014.19
2017-04-07T06:59:14.338Z,1014.23
2017-04-07T06:59:54.784Z,1014.2
2017-04-07T07:00:35.201Z,1014.23
2017-04-07T07:01:15.673Z,1014.23
2017-04-07T07:01:56.173Z,1014.19
2017-04-07T07:02:36.706Z,1014.25
2017-04-07T07:03:17.237Z,1014.23
2017-04-07T07:03:57.583Z,1014.25
2017-04-07T07:04:38.042Z,1014.24
2017-04-07T07:05:18.559Z,1014.27
2017-04-07T07:05:59.049Z,1014.32
2017-04-07T07:06:39.530Z,1014.33
2017-04-07T07:07:23.133Z,1014.35
2017-04-07T07:08:05.981Z,1014.39
2017-04-07T07:08:47.127Z,1014.4
2017-04-07T07:09:27.547Z,1014.4
2017-04-07T07:10:08.995Z,1014.46
2017-04-07T07:10:49.400Z,1014.46
2017-04-07T07:11:29.915Z,1014.52
2017-04-07T07:12:10.407Z,1014.46
2017-04-07T07:12:50.885Z,1014.49
2017-04-07T07:13:31.336Z,1014.52
2017-04-07T07:14:11.801Z,1014.53
2017-04-07T07:14:52.342Z,1014.53
2017-04-07T07:15:32.777Z,1014.58
2017-04-07T07:16:13.206Z,1014.56
2017-04-07T07:16:53.682Z,1014.53
2017-04-07T07:17:34.127Z,1014.57
2017-04-07T07:18:14.597Z,1014.58
2017-04-07T07:18:55.053Z,1014.62
2017-04-07T07:19:35.513Z,1014.66
2017-04-07T07:20:16.479Z,1014.65
2017-04-07T07:20:56.995Z,1014.63
2017-04-07T07:21:37.506Z,1014.66
2017-04-07T07:22:17.942Z,1014.7
2017-04-07T07:22:58.442Z,1014.71
2017-04-07T07:23:40.656Z,1014.73
2017-04-07T07:24:21.131Z,1014.74
2017-04-07T07:25:01.835Z,1014.77
2017-04-07T07:25:43.287Z,1014.79
2017-04-07T07:26:23.775Z,1014.84
2017-04-07T07:27:04.229Z,1014.82
2017-04-07T07:27:44.696Z,1014.81
2017-04-07T07:28:25.307Z,1014.92
2017-04-07T07:29:06.629Z,1014.88
2017-04-07T07:29:47.439Z,1014.91
2017-04-07T07:30:27.996Z,1014.91
2017-04-07T07:31:09.558Z,1014.94
2017-04-07T07:31:51.698Z,1014.97
2017-04-07T07:32:41.979Z,1015
2017-04-07T07:33:25.582Z,1014.98
2017-04-07T07:34:07.334Z,1015.03
2017-04-07T07:34:47.859Z,1015.05
2017-04-07T07:35:28.237Z,1015.07
2017-04-07T07:36:09.382Z,1015.11
2017-04-07T07:36:50.563Z,1015.1
2017-04-07T07:37:32.260Z,1015.15
2017-04-07T07:38:13.743Z,1015.19
2017-04-07T07:38:56.933Z,1015.21
2017-04-07T07:39:37.496Z,1015.22
2017-04-07T07:40:18.080Z,1015.24
2017-04-07T07:40:58.734Z,1015.27
2017-04-07T07:41:39.430Z,1015.28
2017-04-07T07:42:20.336Z,1015.3
2017-04-07T07:43:00.937Z,1015.36
2017-04-07T07:43:42.368Z,1015.34
2017-04-07T07:44:22.829Z,1015.4
2017-04-07T07:45:05.971Z,1015.4
2017-04-07T07:45:48.657Z,1015.41
2017-04-07T07:46:34.193Z,1015.41
2017-04-07T07:47:24.345Z,1015.4
2017-04-07T07:48:05.460Z,1015.37
2017-04-07T07:48:49.336Z,1015.36
2017-04-07T07:49:30.432Z,1015.34
2017-04-07T07:50:11.533Z,1015.34
2017-04-07T07:50:51.760Z,1015.3
2017-04-07T07:51:33.672Z,1015.31
2017-04-07T07:52:16.573Z,1015.16
2017-04-07T07:54:37.286Z,1015.18
2017-04-07T07:55:17.766Z,1015.15
2017-04-07T07:55:58.269Z,1015.17
2017-04-07T07:56:38.761Z,1015.17
2017-04-07T07:57:19.264Z,1015.13
2017-04-07T07:57:59.766Z,1015.07
2017-04-07T07:58:40.500Z,1015.07
2017-04-07T07:59:21.062Z,1015.07
2017-04-07T08:00:01.524Z,1015.04
2017-04-07T08:00:41.998Z,1014.98
2017-04-07T08:01:22.478Z,1015
2017-04-07T08:02:02.973Z,1014.98
2017-04-07T08:02:43.450Z,1014.99
2017-04-07T08:03:23.958Z,1015
2017-04-07T08:04:04.524Z,1014.97
2017-04-07T08:04:45.954Z,1014.93
2017-04-07T08:05:26.454Z,1014.94
2017-04-07T08:06:06.960Z,1014.93
2017-04-07T08:06:47.489Z,1014.94
2017-04-07T08:07:27.945Z,1014.86
2017-04-07T08:09:45.803Z,1014.87
2017-04-07T08:10:26.358Z,1014.84
2017-04-07T08:11:06.829Z,1014.83
2017-04-07T08:11:47.329Z,1014.85
2017-04-07T08:12:27.832Z,1014.85
2017-04-07T08:13:08.316Z,1014.91
2017-04-07T08:13:48.855Z,1015.22
2017-04-07T08:14:29.321Z,1015.46
2017-04-07T08:15:10.115Z,1015.47
2017-04-07T08:15:50.610Z,1015.12
2017-04-07T08:16:31.113Z,1014.72
2017-04-07T08:17:11.589Z,1014.69
2017-04-07T08:17:52.104Z,1014.69
2017-04-07T08:18:32.596Z,1014.65
2017-04-07T08:19:13.113Z,1014.67
2017-04-07T08:19:53.554Z,1014.66
2017-04-07T08:20:34.118Z,1014.63
2017-04-07T08:22:46.898Z,1014.58
2017-04-07T08:23:27.350Z,1014.55
2017-04-07T08:24:07.877Z,1014.58
2017-04-07T08:24:48.367Z,1014.56
2017-04-07T08:26:46.036Z,1014.57
2017-04-07T08:27:26.511Z,1014.57
2017-04-07T08:29:24.179Z,1014.79
2017-04-07T08:30:04.733Z,1015.29
2017-04-07T08:30:45.220Z,1015.72
2017-04-07T08:31:25.839Z,1016
2017-04-07T08:32:06.321Z,1016.09
2017-04-07T08:32:46.809Z,1016.19
2017-04-07T08:33:27.368Z,1016.22
2017-04-07T08:34:07.803Z,1016.12
2017-04-07T08:34:48.339Z,1016.13
2017-04-07T08:35:29.038Z,1016.11
2017-04-07T08:36:09.510Z,1016.06
2017-04-07T08:36:50.167Z,1016.05
2017-04-07T08:37:30.666Z,1016.13
2017-04-07T08:38:11.162Z,1016.33
2017-04-07T08:38:51.746Z,1016.41
2017-04-07T08:39:32.280Z,1016.51
2017-04-07T08:40:12.844Z,1016.53
2017-04-07T08:40:53.433Z,1016.48
2017-04-07T08:41:33.945Z,1016.39
2017-04-07T08:42:14.443Z,1016.23
2017-04-07T08:42:54.959Z,1016.2
2017-04-07T08:43:35.439Z,1016.15
2017-04-07T08:44:16.183Z,1016.16
2017-04-07T08:44:56.691Z,1016.16
2017-04-07T08:45:37.297Z,1016.12
2017-04-07T08:46:17.742Z,1016.07
2017-04-07T08:46:58.226Z,1016.13
2017-04-07T08:47:38.694Z,1016.13
2017-04-07T08:48:19.171Z,1016.06
2017-04-07T08:48:59.678Z,1016.03
2017-04-07T08:49:40.162Z,1016.01
2017-04-07T08:50:20.676Z,1016.02
2017-04-07T08:51:01.258Z,1016
2017-04-07T08:51:41.728Z,1016
2017-04-07T08:52:22.350Z,1015.97
2017-04-07T08:54:50.459Z,1015.84
2017-04-07T08:55:30.960Z,1015.86
2017-04-07T08:56:11.463Z,1015.96
2017-04-07T08:56:52.250Z,1015.89
2017-04-07T08:57:32.776Z,1015.66
2017-04-07T08:58:13.291Z,1015.79
2017-04-07T08:58:53.806Z,1015.81
2017-04-07T08:59:34.303Z,1015.77
2017-04-07T09:00:14.978Z,1015.76
2017-04-07T09:00:55.399Z,1015.74
2017-04-07T09:01:35.988Z,1015.65
2017-04-07T09:02:16.665Z,1015.61
2017-04-07T09:02:56.999Z,1015.61
2017-04-07T09:03:37.443Z,1015.56
2017-04-07T09:04:17.983Z,1015.55
2017-04-07T09:04:58.651Z,1015.49
2017-04-07T09:05:39.164Z,1015.43
2017-04-07T09:06:19.662Z,1015.35
2017-04-07T09:07:00.211Z,1015.28
2017-04-07T09:07:40.831Z,1015.29
2017-04-07T09:08:21.215Z,1015.27
2017-04-07T09:09:01.907Z,1015.28
2017-04-07T09:09:42.579Z,1015.23
2017-04-07T09:10:23.716Z,1015.18
2017-04-07T09:11:04.501Z,1015.12
2017-04-07T09:12:57.104Z,1015.06
2017-04-07T09:13:37.540Z,1015.05
2017-04-07T09:14:18.015Z,1015.01
2017-04-07T09:14:58.461Z,1014.95
2017-04-07T09:15:38.959Z,1014.94
2017-04-07T09:16:19.451Z,1014.81
2017-04-07T09:16:59.973Z,1014.6
2017-04-07T09:17:40.520Z,1014.48
2017-04-07T09:18:21.012Z,1014.47
2017-04-07T09:20:49.118Z,1014.48
2017-04-07T09:21:29.614Z,1014.5
2017-04-07T09:22:10.082Z,1014.54
2017-04-07T09:22:50.669Z,1014.57
2017-04-07T09:23:31.277Z,1014.57
2017-04-07T09:24:11.834Z,1014.52
2017-04-07T09:24:52.343Z,1014.49
2017-04-07T09:28:57.940Z,1014.48
2017-04-07T09:29:38.559Z,1014.51
2017-04-07T09:30:19.050Z,1014.52
2017-04-07T09:30:59.531Z,1014.49
2017-04-07T09:31:40.116Z,1014.45